createdAt,value
2023-05-05T00:01:03.988Z,36.04
2023-05-05T00:03:09.043Z,36.20
2023-05-05T00:05:13.984Z,36.08
2023-05-05T00:07:18.760Z,36.48
2023-05-05T00:09:23.576Z,36.32
2023-05-05T00:11:28.874Z,36.55
2023-05-05T00:13:36.258Z,36.56
2023-05-05T00:15:41.902Z,36.70
2023-05-05T00:17:46.636Z,36.56
2023-05-05T00:19:51.537Z,36.49
2023-05-05T00:21:56.699Z,36.85
2023-05-05T00:24:01.391Z,36.55
2023-05-05T00:26:06.638Z,36.80
2023-05-05T00:28:11.673Z,36.42
2023-05-05T00:30:19.232Z,37.05
2023-05-05T00:32:23.984Z,36.64
2023-05-05T00:34:28.670Z,36.60
2023-05-05T00:36:33.391Z,36.60
2023-05-05T00:38:38.263Z,36.73
2023-05-05T00:40:42.997Z,36.60
2023-05-05T00:42:50.963Z,36.61
2023-05-05T00:44:56.111Z,36.58
2023-05-05T00:47:03.741Z,36.90
2023-05-05T00:49:08.563Z,37.05
2023-05-05T00:51:13.274Z,36.94
2023-05-05T00:53:18.315Z,36.68
2023-05-05T00:55:23.640Z,36.97
2023-05-05T00:57:28.906Z,36.93
2023-05-05T00:59:35.798Z,36.84
2023-05-05T01:01:40.637Z,36.85
2023-05-05T01:03:48.031Z,37.40
2023-05-05T01:06:01.827Z,37.31
2023-05-05T01:08:22.453Z,37.82
2023-05-05T01:10:38.407Z,37.76
2023-05-05T01:12:54.260Z,37.33
2023-05-05T01:15:06.242Z,37.45
2023-05-05T01:17:20.203Z,37.46
2023-05-05T01:19:53.804Z,37.69
2023-05-05T01:22:01.684Z,37.48
2023-05-05T01:24:42.038Z,37.70
2023-05-05T01:27:07.798Z,37.47
2023-05-05T01:29:35.056Z,37.60
2023-05-05T01:31:53.337Z,37.82
2023-05-05T01:34:02.849Z,37.64
2023-05-05T01:36:14.721Z,37.79
2023-05-05T01:38:22.517Z,37.59
2023-05-05T01:40:33.052Z,37.98
2023-05-05T01:42:40.864Z,37.61
2023-05-05T01:44:46.866Z,37.85
2023-05-05T01:46:55.142Z,37.88
2023-05-05T01:49:01.614Z,37.75
2023-05-05T01:51:08.174Z,37.44
2023-05-05T01:53:15.007Z,37.75
2023-05-05T01:55:22.236Z,37.65
2023-05-05T01:57:29.415Z,37.53
2023-05-05T01:59:35.131Z,37.78
2023-05-05T02:01:44.903Z,37.82
2023-05-05T02:03:53.978Z,38.00
2023-05-05T02:06:01.912Z,37.87
2023-05-05T02:08:09.500Z,38.09
2023-05-05T02:10:16.969Z,37.91
2023-05-05T02:12:22.880Z,37.63
2023-05-05T02:14:30.570Z,37.94
2023-05-05T02:16:37.495Z,37.72
2023-05-05T02:18:43.496Z,37.54
2023-05-05T02:20:51.373Z,37.70
2023-05-05T02:22:56.739Z,37.66
2023-05-05T02:25:01.705Z,37.93
2023-05-05T02:27:10.296Z,37.83
2023-05-05T02:29:19.274Z,37.99
2023-05-05T02:31:26.904Z,37.87
2023-05-05T02:33:34.575Z,37.86
2023-05-05T02:35:42.847Z,37.73
2023-05-05T02:38:02.868Z,37.97
2023-05-05T02:40:14.252Z,37.74
2023-05-05T02:42:23.994Z,37.89
2023-05-05T02:44:32.040Z,38.06
2023-05-05T02:46:37.891Z,38.26
2023-05-05T02:48:42.893Z,38.11
2023-05-05T02:50:47.716Z,38.00
2023-05-05T02:53:03.517Z,38.61
2023-05-05T02:55:09.520Z,38.29
2023-05-05T02:57:21.464Z,38.51
2023-05-05T02:59:39.353Z,38.59
2023-05-05T03:01:59.532Z,38.89
2023-05-05T03:04:11.728Z,38.70
2023-05-05T03:06:24.679Z,38.63
2023-05-05T03:08:38.799Z,38.75
2023-05-05T03:10:49.858Z,38.90
2023-05-05T03:12:57.877Z,38.65
2023-05-05T03:15:12.896Z,38.79
2023-05-05T03:17:20.293Z,38.68
2023-05-05T03:19:26.307Z,38.76
2023-05-05T03:21:36.331Z,38.43
2023-05-05T03:23:43.966Z,38.74
2023-05-05T03:25:55.999Z,38.62
2023-05-05T03:28:14.264Z,38.37
2023-05-05T03:30:20.382Z,38.58
2023-05-05T03:32:28.937Z,38.92
2023-05-05T03:34:35.983Z,38.61
2023-05-05T03:36:41.894Z,38.83
2023-05-05T03:38:52.136Z,39.03
2023-05-05T03:40:58.747Z,39.14
2023-05-05T03:43:04.816Z,38.89
2023-05-05T03:45:11.298Z,38.99
2023-05-05T03:47:17.678Z,39.15
2023-05-05T03:49:23.027Z,39.15
2023-05-05T03:51:28.277Z,39.23
2023-05-05T03:53:34.056Z,39.08
2023-05-05T03:55:44.659Z,39.49
2023-05-05T03:57:49.657Z,39.35
2023-05-05T03:59:54.416Z,39.35
2023-05-05T04:01:59.310Z,39.26
2023-05-05T04:04:04.326Z,39.67
2023-05-05T04:06:09.287Z,39.27
2023-05-05T04:08:14.000Z,39.21
2023-05-05T04:10:18.912Z,39.51
2023-05-05T04:12:26.242Z,39.57
2023-05-05T04:14:31.100Z,39.19
2023-05-05T04:16:35.924Z,39.32
2023-05-05T04:18:40.793Z,39.68
2023-05-05T04:20:46.863Z,39.62
2023-05-05T04:22:52.723Z,39.68
2023-05-05T04:24:58.562Z,39.65
2023-05-05T04:27:03.731Z,39.64
2023-05-05T04:29:11.818Z,39.93
2023-05-05T04:31:17.299Z,39.88
2023-05-05T04:33:22.904Z,40.07
2023-05-05T04:35:28.476Z,39.94
2023-05-05T04:37:33.216Z,39.96
2023-05-05T04:39:40.267Z,40.22
2023-05-05T04:41:45.043Z,40.05
2023-05-05T04:43:50.018Z,40.00
2023-05-05T04:46:00.338Z,40.47
2023-05-05T04:48:08.813Z,40.45
2023-05-05T04:50:14.589Z,40.10
2023-05-05T04:52:19.564Z,40.71
2023-05-05T04:54:24.620Z,40.84
2023-05-05T04:56:29.731Z,40.92
2023-05-05T04:58:34.543Z,40.86
2023-05-05T05:00:39.788Z,40.62
2023-05-05T05:02:47.120Z,40.72
2023-05-05T05:04:51.894Z,40.86
2023-05-05T05:06:59.140Z,40.75
2023-05-05T05:09:05.593Z,40.85
2023-05-05T05:11:10.336Z,40.60
2023-05-05T05:13:15.161Z,40.89
2023-05-05T05:15:19.907Z,40.75
2023-05-05T05:17:25.332Z,40.82
2023-05-05T05:19:32.971Z,40.71
2023-05-05T05:21:38.030Z,40.61
2023-05-05T05:23:43.431Z,40.64
2023-05-05T05:25:48.821Z,40.57
2023-05-05T05:28:08.815Z,40.88
2023-05-05T05:30:18.826Z,41.01
2023-05-05T05:32:24.280Z,41.08
2023-05-05T05:34:36.760Z,41.30
2023-05-05T05:36:42.911Z,41.05
2023-05-05T05:38:47.664Z,41.24
2023-05-05T05:40:54.662Z,41.46
2023-05-05T05:43:01.057Z,41.66
2023-05-05T05:45:06.869Z,41.71
2023-05-05T05:47:12.023Z,41.89
2023-05-05T05:49:18.051Z,42.29
2023-05-05T05:51:26.521Z,42.33
2023-05-05T05:53:31.886Z,41.91
2023-05-05T05:55:37.053Z,42.26
2023-05-05T05:57:42.149Z,42.61
2023-05-05T05:59:47.873Z,42.55
2023-05-05T06:01:53.624Z,42.55
2023-05-05T06:03:58.823Z,42.58
2023-05-05T06:06:04.077Z,42.85
2023-05-05T06:08:11.737Z,43.10
2023-05-05T06:10:27.804Z,43.08
2023-05-05T06:12:45.592Z,43.39
2023-05-05T06:14:52.319Z,43.54
2023-05-05T06:16:58.958Z,43.56
2023-05-05T06:19:09.737Z,43.64
2023-05-05T06:21:17.910Z,43.64
2023-05-05T06:23:25.748Z,44.10
2023-05-05T06:25:35.786Z,44.06
2023-05-05T06:27:40.621Z,44.24
2023-05-05T06:29:45.457Z,44.11
2023-05-05T06:31:50.486Z,44.34
2023-05-05T06:33:55.383Z,44.15
2023-05-05T06:36:00.256Z,44.28
2023-05-05T06:38:05.053Z,44.69
2023-05-05T06:40:13.455Z,45.04
2023-05-05T06:42:18.439Z,44.81
2023-05-05T06:44:24.095Z,45.13
2023-05-05T06:46:29.448Z,45.18
2023-05-05T06:48:34.335Z,45.31
2023-05-05T06:50:39.149Z,45.49
2023-05-05T06:52:47.114Z,45.54
2023-05-05T06:54:51.963Z,45.47
2023-05-05T06:56:59.879Z,45.62
2023-05-05T06:59:05.628Z,45.41
2023-05-05T07:01:10.850Z,45.66
2023-05-05T07:03:16.233Z,45.77
2023-05-05T07:05:21.233Z,46.17
2023-05-05T07:07:27.105Z,45.80
2023-05-05T07:09:31.815Z,45.73
2023-05-05T07:11:37.965Z,46.06
2023-05-05T07:13:46.837Z,46.44
2023-05-05T07:15:54.746Z,46.13
2023-05-05T07:18:00.157Z,46.30
2023-05-05T07:20:06.228Z,46.03
2023-05-05T07:22:11.247Z,46.19
2023-05-05T07:24:16.155Z,46.35
2023-05-05T07:26:21.628Z,46.25
2023-05-05T07:28:27.992Z,46.77
2023-05-05T07:30:35.857Z,47.17
2023-05-05T07:32:40.859Z,46.96
2023-05-05T07:34:45.591Z,46.73
2023-05-05T07:36:50.471Z,46.85
2023-05-05T07:38:55.556Z,46.64
2023-05-05T07:41:00.394Z,46.78
2023-05-05T07:43:05.536Z,46.71
2023-05-05T07:45:11.242Z,47.15
2023-05-05T07:47:18.561Z,47.15
2023-05-05T07:49:23.597Z,46.94
2023-05-05T07:51:28.355Z,47.27
2023-05-05T07:53:33.292Z,47.22
2023-05-05T07:55:38.024Z,47.44
2023-05-05T07:57:42.819Z,47.45
2023-05-05T07:59:47.560Z,47.33
2023-05-05T08:01:54.843Z,47.10
2023-05-05T08:04:03.176Z,47.60
2023-05-05T08:06:11.481Z,47.77
2023-05-05T08:08:17.054Z,47.56
2023-05-05T08:10:22.481Z,47.81
2023-05-05T08:12:27.195Z,47.66
2023-05-05T08:14:32.254Z,47.78
2023-05-05T08:16:37.263Z,47.71
2023-05-05T08:18:42.909Z,47.82
2023-05-05T08:20:50.634Z,47.66
2023-05-05T08:22:55.780Z,47.71
2023-05-05T08:25:00.831Z,47.71
2023-05-05T08:27:05.540Z,47.27
2023-05-05T08:29:10.328Z,47.08
2023-05-05T08:31:15.784Z,46.79
2023-05-05T08:33:20.662Z,46.55
2023-05-05T08:35:25.559Z,46.35
2023-05-05T08:37:32.985Z,46.50
2023-05-05T08:39:37.772Z,46.52
2023-05-05T08:41:42.670Z,46.36
2023-05-05T08:43:49.393Z,46.16
2023-05-05T08:45:54.525Z,45.96
2023-05-05T08:48:00.165Z,46.34
2023-05-05T08:50:06.050Z,46.26
2023-05-05T08:52:14.039Z,45.63
2023-05-05T08:54:23.214Z,45.56
2023-05-05T08:56:30.214Z,45.87
2023-05-05T08:58:35.151Z,46.04
2023-05-05T09:00:40.471Z,46.00
2023-05-05T09:02:46.330Z,45.92
2023-05-05T09:04:51.345Z,45.18
2023-05-05T09:06:56.539Z,45.28
2023-05-05T09:09:01.878Z,45.12
2023-05-05T09:11:09.715Z,44.95
2023-05-05T09:13:14.637Z,44.92
2023-05-05T09:15:19.433Z,44.94
2023-05-05T09:17:28.094Z,44.27
2023-05-05T09:19:32.792Z,44.09
2023-05-05T09:21:37.973Z,44.44
2023-05-05T09:23:42.702Z,44.35
2023-05-05T09:25:49.913Z,44.44
2023-05-05T09:27:57.812Z,44.69
2023-05-05T09:30:03.341Z,45.00
2023-05-05T09:32:09.125Z,45.25
2023-05-05T09:34:18.048Z,44.87
2023-05-05T09:36:43.256Z,45.00
2023-05-05T09:39:07.946Z,44.74
2023-05-05T09:41:12.981Z,44.96
2023-05-05T09:43:22.664Z,44.95
2023-05-05T09:45:29.480Z,44.10
2023-05-05T09:47:38.681Z,43.78
2023-05-05T09:49:43.498Z,43.36
2023-05-05T09:51:48.615Z,43.35
2023-05-05T09:53:53.371Z,43.94
2023-05-05T09:55:59.550Z,43.30
2023-05-05T09:58:26.288Z,42.42
2023-05-05T10:00:41.538Z,42.28
2023-05-05T10:02:46.665Z,42.07
2023-05-05T10:04:51.498Z,42.24
2023-05-05T10:06:57.280Z,42.81
2023-05-05T10:09:05.381Z,42.91
2023-05-05T10:11:11.355Z,42.39
2023-05-05T10:13:18.667Z,42.04
2023-05-05T10:15:27.670Z,41.41
2023-05-05T10:17:35.612Z,41.39
2023-05-05T10:19:42.304Z,41.61
2023-05-05T10:21:52.258Z,41.25
2023-05-05T10:24:00.319Z,41.37
2023-05-05T10:26:08.526Z,41.25
2023-05-05T10:28:18.614Z,41.08
2023-05-05T10:30:28.539Z,40.27
2023-05-05T10:34:54.035Z,39.87
2023-05-05T10:37:00.461Z,39.87
2023-05-05T10:39:07.219Z,39.83
2023-05-05T10:41:13.370Z,39.56
2023-05-05T10:43:18.606Z,39.48
2023-05-05T10:45:26.609Z,39.20
2023-05-05T10:47:32.748Z,39.14
2023-05-05T10:49:44.826Z,39.55
2023-05-05T10:51:59.091Z,39.31
2023-05-05T10:54:12.715Z,39.04
2023-05-05T10:56:26.710Z,39.60
2023-05-05T10:58:46.955Z,39.29
2023-05-05T11:00:59.194Z,39.06
2023-05-05T11:03:25.246Z,39.12
2023-05-05T11:05:30.612Z,39.60
2023-05-05T11:07:35.678Z,39.52
2023-05-05T11:09:57.983Z,39.16
2023-05-05T11:12:06.938Z,39.06
2023-05-05T11:14:23.125Z,39.10
2023-05-05T11:16:50.691Z,38.90
2023-05-05T11:18:55.622Z,39.02
2023-05-05T11:21:20.029Z,38.43
2023-05-05T11:23:25.054Z,38.45
2023-05-05T11:25:51.595Z,37.58
2023-05-05T11:28:08.823Z,38.49
2023-05-05T11:30:15.557Z,38.42
2023-05-05T11:32:23.540Z,38.72
2023-05-05T11:34:31.412Z,38.22
2023-05-05T11:36:43.995Z,38.44
2023-05-05T11:38:57.933Z,38.78
2023-05-05T11:41:07.968Z,38.40
2023-05-05T11:43:13.414Z,38.61
2023-05-05T11:45:26.070Z,37.84
2023-05-05T11:47:34.149Z,38.63
2023-05-05T11:49:40.388Z,38.36
2023-05-05T11:51:46.028Z,38.19
2023-05-05T11:53:53.091Z,38.14
2023-05-05T11:56:09.694Z,37.54
2023-05-05T11:58:23.811Z,37.43
2023-05-05T12:00:35.807Z,37.26
2023-05-05T12:02:43.460Z,37.66
2023-05-05T12:04:48.660Z,37.55
2023-05-05T12:06:53.824Z,37.41
2023-05-05T12:08:58.776Z,37.63
2023-05-05T12:11:07.185Z,37.58
2023-05-05T12:13:21.312Z,37.18
2023-05-05T12:15:33.571Z,36.90
2023-05-05T12:17:47.199Z,37.24
2023-05-05T12:19:56.948Z,37.43
2023-05-05T12:22:01.909Z,37.57
2023-05-05T12:24:07.591Z,37.21
2023-05-05T12:26:27.843Z,36.89
2023-05-05T12:28:46.737Z,37.21
2023-05-05T12:31:00.249Z,37.38
2023-05-05T12:33:09.117Z,37.65
2023-05-05T12:35:16.281Z,37.46
2023-05-05T12:37:22.065Z,37.25
2023-05-05T12:39:36.942Z,37.27
2023-05-05T12:41:42.064Z,36.72
2023-05-05T12:43:47.682Z,37.00
2023-05-05T12:46:02.093Z,36.38
2023-05-05T12:48:27.242Z,36.21
2023-05-05T12:50:35.467Z,36.89
2023-05-05T12:52:47.895Z,37.21
2023-05-05T12:55:00.375Z,37.13
2023-05-05T12:57:14.390Z,36.97
2023-05-05T12:59:32.411Z,36.33
2023-05-05T13:01:37.929Z,36.94
2023-05-05T13:03:45.422Z,37.15
2023-05-05T13:05:50.184Z,37.38
2023-05-05T13:07:55.129Z,37.36
2023-05-05T13:10:10.679Z,37.06
2023-05-05T13:12:15.875Z,36.92
2023-05-05T13:14:20.666Z,37.20
2023-05-05T13:16:25.726Z,36.74
2023-05-05T13:18:30.673Z,36.98
2023-05-05T13:20:38.153Z,37.09
2023-05-05T13:22:42.958Z,37.45
2023-05-05T13:24:52.182Z,37.46
2023-05-05T13:26:57.930Z,37.69
2023-05-05T13:29:03.222Z,37.84
2023-05-05T13:31:08.495Z,37.96
2023-05-05T13:33:13.393Z,37.42
2023-05-05T13:35:18.304Z,37.61
2023-05-05T13:37:25.845Z,37.36
2023-05-05T13:39:30.650Z,37.49
2023-05-05T13:41:35.558Z,37.40
2023-05-05T13:43:40.592Z,37.20
2023-05-05T13:45:45.441Z,37.50
2023-05-05T13:47:50.314Z,37.94
2023-05-05T13:49:55.152Z,37.70
2023-05-05T13:52:00.037Z,37.76
2023-05-05T13:54:08.236Z,37.91
2023-05-05T13:56:13.334Z,37.78
2023-05-05T13:58:18.647Z,37.89
2023-05-05T14:00:23.702Z,37.73
2023-05-05T14:02:28.612Z,37.71
2023-05-05T14:04:33.566Z,37.94
2023-05-05T14:06:38.587Z,37.85
2023-05-05T14:08:43.907Z,38.11
2023-05-05T14:10:52.248Z,37.57
2023-05-05T14:12:57.131Z,37.43
2023-05-05T14:15:02.228Z,37.78
2023-05-05T14:17:07.113Z,37.50
2023-05-05T14:19:11.980Z,38.00
2023-05-05T14:21:16.747Z,37.90
2023-05-05T14:23:21.536Z,37.66
2023-05-05T14:25:26.333Z,37.63
2023-05-05T14:27:34.177Z,37.51
2023-05-05T14:29:39.017Z,37.99
2023-05-05T14:33:49.136Z,37.99
2023-05-05T14:35:54.125Z,37.59
2023-05-05T14:37:58.997Z,37.25
2023-05-05T14:40:05.781Z,37.65
2023-05-05T14:42:10.958Z,37.87
2023-05-05T14:46:23.296Z,38.31
2023-05-05T14:48:28.405Z,38.22
2023-05-05T14:50:33.303Z,37.75
2023-05-05T14:52:41.088Z,37.57
2023-05-05T14:54:47.158Z,37.53
2023-05-05T14:56:52.984Z,37.40
2023-05-05T14:58:57.739Z,37.74
2023-05-05T15:01:05.542Z,37.17
2023-05-05T15:03:10.394Z,37.38
2023-05-05T15:05:15.271Z,37.21
2023-05-05T15:07:20.617Z,37.23
2023-05-05T15:09:25.490Z,36.46
2023-05-05T15:11:30.208Z,36.78
2023-05-05T15:13:35.685Z,36.92
2023-05-05T15:15:40.691Z,36.98
2023-05-05T15:17:48.210Z,37.31
2023-05-05T15:19:53.015Z,37.15
2023-05-05T15:21:58.131Z,37.01
2023-05-05T15:24:02.946Z,37.32
2023-05-05T15:26:07.899Z,36.87
2023-05-05T15:28:12.640Z,37.04
2023-05-05T15:30:18.270Z,37.01
2023-05-05T15:32:23.240Z,36.92
2023-05-05T15:34:31.149Z,36.51
2023-05-05T15:36:36.182Z,36.23
2023-05-05T15:38:44.736Z,36.55
2023-05-05T15:40:50.367Z,36.66
2023-05-05T15:42:55.248Z,36.38
2023-05-05T15:45:01.671Z,36.37
2023-05-05T15:47:06.627Z,36.40
2023-05-05T15:49:11.500Z,36.59
2023-05-05T15:51:18.840Z,36.51
2023-05-05T15:53:23.601Z,36.64
2023-05-05T15:55:28.788Z,36.53
2023-05-05T15:57:34.048Z,36.50
2023-05-05T15:59:39.306Z,36.97
2023-05-05T16:01:44.090Z,36.78
2023-05-05T16:03:48.929Z,36.71
2023-05-05T16:05:53.654Z,36.99
2023-05-05T16:08:01.141Z,37.36
2023-05-05T16:10:06.517Z,37.02
2023-05-05T16:12:11.462Z,36.82
2023-05-05T16:14:16.360Z,36.58
2023-05-05T16:16:21.353Z,36.44
2023-05-05T16:18:26.111Z,36.21
2023-05-05T16:20:31.010Z,36.43
2023-05-05T16:22:35.872Z,36.69
2023-05-05T16:24:44.387Z,36.46
2023-05-05T16:26:49.261Z,36.31
2023-05-05T16:28:54.011Z,36.61
2023-05-05T16:30:58.996Z,36.49
2023-05-05T16:33:03.994Z,36.77
2023-05-05T16:35:10.675Z,36.75
2023-05-05T16:37:15.703Z,36.98
2023-05-05T16:39:20.529Z,36.56
2023-05-05T16:41:28.760Z,36.48
2023-05-05T16:43:33.529Z,36.78
2023-05-05T16:45:38.414Z,37.37
2023-05-05T16:47:43.376Z,37.33
2023-05-05T16:49:48.218Z,37.76
2023-05-05T16:51:53.741Z,37.99
2023-05-05T16:53:59.076Z,38.01
2023-05-05T16:56:04.044Z,37.72
2023-05-05T16:58:11.477Z,38.13
2023-05-05T17:00:17.637Z,37.80
2023-05-05T17:02:22.589Z,37.65
2023-05-05T17:04:27.444Z,38.20
2023-05-05T17:06:34.845Z,38.00
2023-05-05T17:08:39.564Z,37.99
2023-05-05T17:10:44.422Z,38.21
2023-05-05T17:12:49.189Z,38.46
2023-05-05T17:14:56.686Z,38.22
2023-05-05T17:17:01.408Z,38.37
2023-05-05T17:19:06.198Z,38.60
2023-05-05T17:21:10.961Z,38.28
2023-05-05T17:23:16.809Z,38.53
2023-05-05T17:25:21.931Z,38.55
2023-05-05T17:27:26.905Z,38.68
2023-05-05T17:29:33.078Z,38.62
2023-05-05T17:31:40.696Z,38.90
2023-05-05T17:33:45.626Z,38.81
2023-05-05T17:35:53.825Z,38.73
2023-05-05T17:37:58.920Z,39.10
2023-05-05T17:40:03.741Z,39.12
2023-05-05T17:42:08.612Z,38.90
2023-05-05T17:44:13.348Z,39.07
2023-05-05T17:46:18.416Z,39.33
2023-05-05T17:48:26.015Z,39.54
2023-05-05T17:50:30.791Z,39.42
2023-05-05T17:52:35.844Z,39.21
2023-05-05T17:54:42.602Z,39.45
2023-05-05T17:56:47.441Z,39.25
2023-05-05T17:58:52.677Z,39.75
2023-05-05T18:00:57.529Z,39.62
2023-05-05T18:03:03.717Z,39.80
2023-05-05T18:05:12.111Z,39.66
2023-05-05T18:07:17.445Z,39.73
2023-05-05T18:09:22.239Z,39.82
2023-05-05T18:11:29.036Z,39.63
2023-05-05T18:13:33.904Z,39.76
2023-05-05T18:15:38.703Z,39.84
2023-05-05T18:17:43.604Z,40.29
2023-05-05T18:19:49.225Z,40.09
2023-05-05T18:21:57.602Z,40.18
2023-05-05T18:24:15.690Z,40.09
2023-05-05T18:26:24.779Z,40.07
2023-05-05T18:28:29.635Z,40.49
2023-05-05T18:30:35.920Z,40.65
2023-05-05T18:32:41.157Z,40.26
2023-05-05T18:34:46.086Z,40.60
2023-05-05T18:36:54.453Z,40.62
2023-05-05T18:39:02.132Z,41.08
2023-05-05T18:41:07.311Z,40.42
2023-05-05T18:43:12.192Z,40.89
2023-05-05T18:45:17.188Z,40.88
2023-05-05T18:47:22.327Z,40.58
2023-05-05T18:49:29.592Z,40.85
2023-05-05T18:51:36.134Z,40.80
2023-05-05T18:53:41.919Z,40.89
2023-05-05T18:55:49.720Z,41.05
2023-05-05T18:57:54.476Z,41.30
2023-05-05T18:59:59.216Z,41.33
2023-05-05T19:02:04.070Z,41.16
2023-05-05T19:04:18.758Z,40.89
2023-05-05T19:06:32.555Z,41.43
2023-05-05T19:08:37.323Z,41.01
2023-05-05T19:10:42.342Z,41.59
2023-05-05T19:12:49.907Z,41.92
2023-05-05T19:14:54.768Z,41.40
2023-05-05T19:17:00.443Z,41.85
2023-05-05T19:19:05.566Z,41.75
2023-05-05T19:21:10.479Z,42.09
2023-05-05T19:23:15.252Z,42.43
2023-05-05T19:25:20.263Z,42.26
2023-05-05T19:27:25.079Z,42.36
2023-05-05T19:29:33.954Z,42.87
2023-05-05T19:31:39.231Z,42.78
2023-05-05T19:33:45.822Z,42.58
2023-05-05T19:35:50.718Z,42.60
2023-05-05T19:37:55.436Z,42.87
2023-05-05T19:40:00.141Z,42.58
2023-05-05T19:42:05.993Z,42.67
2023-05-05T19:44:11.041Z,42.39
2023-05-05T19:46:20.015Z,42.89
2023-05-05T19:48:24.900Z,42.88
2023-05-05T19:50:30.515Z,42.80
2023-05-05T19:52:36.919Z,43.31
2023-05-05T19:54:43.605Z,43.38
2023-05-05T19:56:48.417Z,43.56
2023-05-05T19:58:59.139Z,44.43
2023-05-05T20:01:04.045Z,44.10
2023-05-05T20:03:12.715Z,44.55
2023-05-05T20:05:17.954Z,44.06
2023-05-05T20:07:22.935Z,44.49
2023-05-05T20:09:27.755Z,44.69
2023-05-05T20:11:32.958Z,44.59
2023-05-05T20:13:38.469Z,44.39
2023-05-05T20:15:43.498Z,44.63
2023-05-05T20:17:49.399Z,44.82
2023-05-05T20:19:57.843Z,45.15
2023-05-05T20:22:02.693Z,44.96
2023-05-05T20:24:09.708Z,45.26
2023-05-05T20:26:14.887Z,44.82
2023-05-05T20:28:20.058Z,45.04
2023-05-05T20:30:24.987Z,44.85
2023-05-05T20:32:29.914Z,45.04
2023-05-05T20:34:34.808Z,45.39
2023-05-05T20:36:42.281Z,46.00
2023-05-05T20:38:47.124Z,45.58
2023-05-05T20:40:52.915Z,46.54
2023-05-05T20:42:57.703Z,46.57
2023-05-05T20:45:03.714Z,47.06
2023-05-05T20:47:08.884Z,46.78
2023-05-05T20:49:13.834Z,46.92
2023-05-05T20:51:18.571Z,46.97
2023-05-05T20:53:26.362Z,47.43
2023-05-05T20:55:31.405Z,47.56
2023-05-05T20:57:36.898Z,47.61
2023-05-05T20:59:41.793Z,47.20
2023-05-05T21:01:46.702Z,47.24
2023-05-05T21:03:51.660Z,47.68
2023-05-05T21:05:56.370Z,47.69
2023-05-05T21:08:01.497Z,47.50
2023-05-05T21:10:10.848Z,48.25
2023-05-05T21:12:15.868Z,47.71
2023-05-05T21:14:20.711Z,48.09
2023-05-05T21:16:25.507Z,47.74
2023-05-05T21:18:30.306Z,47.71
2023-05-05T21:20:35.031Z,48.13
2023-05-05T21:22:40.002Z,47.75
2023-05-05T21:24:44.937Z,48.18
2023-05-05T21:26:52.816Z,48.20
2023-05-05T21:28:57.666Z,47.89
2023-05-05T21:31:20.474Z,48.08
2023-05-05T21:33:26.332Z,48.19
2023-05-05T21:35:31.276Z,48.11
2023-05-05T21:37:36.833Z,47.96
2023-05-05T21:39:41.914Z,48.23
2023-05-05T21:41:46.992Z,48.21
2023-05-05T21:43:54.494Z,48.50
2023-05-05T21:46:02.734Z,48.21
2023-05-05T21:48:08.341Z,48.04
2023-05-05T21:50:13.914Z,47.93
2023-05-05T21:52:18.752Z,48.00
2023-05-05T21:54:23.648Z,48.28
2023-05-05T21:56:28.440Z,47.96
2023-05-05T21:58:33.382Z,48.15
2023-05-05T22:00:41.585Z,48.41
2023-05-05T22:02:46.638Z,48.15
2023-05-05T22:04:53.768Z,48.28
2023-05-05T22:06:58.550Z,48.01
2023-05-05T22:09:03.548Z,47.93
2023-05-05T22:11:08.404Z,48.17
2023-05-05T22:13:14.102Z,48.04
2023-05-05T22:15:20.148Z,47.95
2023-05-05T22:17:27.822Z,48.62
2023-05-05T22:19:32.712Z,48.46
2023-05-05T22:21:37.877Z,48.12
2023-05-05T22:23:42.641Z,48.47
2023-05-05T22:25:47.509Z,48.25
2023-05-05T22:27:52.413Z,48.22
2023-05-05T22:29:57.294Z,48.44
2023-05-05T22:32:02.320Z,48.42
2023-05-05T22:34:10.082Z,48.50
2023-05-05T22:36:15.253Z,48.45
2023-05-05T22:38:20.143Z,48.71
2023-05-05T22:40:24.998Z,48.50
2023-05-05T22:42:30.554Z,48.54
2023-05-05T22:44:35.685Z,48.71
2023-05-05T22:46:41.123Z,48.86
2023-05-05T22:48:46.272Z,48.72
2023-05-05T22:50:54.028Z,48.66
2023-05-05T22:52:59.136Z,48.61
2023-05-05T22:55:04.125Z,48.70
2023-05-05T22:57:08.916Z,48.69
2023-05-05T22:59:13.880Z,48.58
2023-05-05T23:01:19.221Z,48.67
2023-05-05T23:03:24.257Z,48.85
2023-05-05T23:05:29.390Z,48.91
2023-05-05T23:07:36.859Z,48.69
2023-05-05T23:09:41.794Z,48.53
2023-05-05T23:11:46.637Z,48.73
2023-05-05T23:13:51.837Z,49.05
2023-05-05T23:15:56.952Z,48.99
2023-05-05T23:18:01.824Z,48.97
2023-05-05T23:20:09.822Z,49.06
2023-05-05T23:22:14.707Z,49.07
2023-05-05T23:24:22.226Z,48.96
2023-05-05T23:26:27.087Z,49.05
2023-05-05T23:28:32.069Z,48.67
2023-05-05T23:30:37.132Z,48.95
2023-05-05T23:32:42.885Z,49.06
2023-05-05T23:34:47.780Z,48.86
2023-05-05T23:36:52.966Z,48.96
2023-05-05T23:38:57.716Z,48.98
2023-05-05T23:41:05.775Z,49.22
2023-05-05T23:43:12.128Z,48.80
2023-05-05T23:45:19.223Z,48.87
2023-05-05T23:47:24.329Z,49.08
2023-05-05T23:49:29.228Z,48.91
2023-05-05T23:51:34.000Z,48.80
2023-05-05T23:53:38.957Z,48.97
2023-05-05T23:55:43.845Z,48.93
2023-05-05T23:57:51.746Z,49.23
2023-05-05T23:59:56.579Z,49.29
